sensor_id;sensor_type;location;lat;lon;timestamp;temperature;humidity
49503;DHT22;35409;48.776;9.204;2023-02-01T00:01:42;4.00;99.90
49503;DHT22;35409;48.776;9.204;2023-02-01T00:04:08;3.90;99.90
49503;DHT22;35409;48.776;9.204;2023-02-01T00:06:34;3.90;99.90
49503;DHT22;35409;48.776;9.204;2023-02-01T00:08:59;3.90;99.90
49503;DHT22;35409;48.776;9.204;2023-02-01T00:11:25;3.90;99.90
49503;DHT22;35409;48.776;9.204;2023-02-01T00:13:51;3.80;99.90
49503;DHT22;35409;48.776;9.204;2023-02-01T00:16:22;3.90;99.90
49503;DHT22;35409;48.776;9.204;2023-02-01T00:18:50;3.90;99.90
49503;DHT22;35409;48.776;9.204;2023-02-01T00:21:18;3.90;99.90
49503;DHT22;35409;48.776;9.204;2023-02-01T00:23:44;3.90;99.90
49503;DHT22;35409;48.776;9.204;2023-02-01T00:26:22;3.90;99.90
49503;DHT22;35409;48.776;9.204;2023-02-01T00:28:50;3.90;99.90
49503;DHT22;35409;48.776;9.204;2023-02-01T00:31:15;3.90;99.90
49503;DHT22;35409;48.776;9.204;2023-02-01T00:33:41;3.80;99.90
49503;DHT22;35409;48.776;9.204;2023-02-01T00:36:08;3.90;99.90
49503;DHT22;35409;48.776;9.204;2023-02-01T00:38:37;3.90;99.90
49503;DHT22;35409;48.776;9.204;2023-02-01T00:41:19;3.90;99.90
49503;DHT22;35409;48.776;9.204;2023-02-01T00:43:46;3.90;99.90
49503;DHT22;35409;48.776;9.204;2023-02-01T00:46:14;4.00;99.90
49503;DHT22;35409;48.776;9.204;2023-02-01T00:48:40;3.90;99.90
49503;DHT22;35409;48.776;9.204;2023-02-01T00:51:08;3.90;99.90
49503;DHT22;35409;48.776;9.204;2023-02-01T00:53:35;3.90;99.90
49503;DHT22;35409;48.776;9.204;2023-02-01T00:56:00;3.90;99.90
49503;DHT22;35409;48.776;9.204;2023-02-01T00:58:26;3.90;99.90
49503;DHT22;35409;48.776;9.204;2023-02-01T01:01:06;3.90;99.90
49503;DHT22;35409;48.776;9.204;2023-02-01T01:03:34;3.90;99.90
49503;DHT22;35409;48.776;9.204;2023-02-01T01:06:01;3.90;99.90
49503;DHT22;35409;48.776;9.204;2023-02-01T01:08:28;4.00;99.90
49503;DHT22;35409;48.776;9.204;2023-02-01T01:10:53;4.00;99.90
49503;DHT22;35409;48.776;9.204;2023-02-01T01:13:19;4.00;99.90
49503;DHT22;35409;48.776;9.204;2023-02-01T01:15:45;4.00;99.90
49503;DHT22;35409;48.776;9.204;2023-02-01T01:18:10;4.00;99.90
49503;DHT22;35409;48.776;9.204;2023-02-01T01:20:38;4.10;99.90
49503;DHT22;35409;48.776;9.204;2023-02-01T01:23:04;4.00;99.90
49503;DHT22;35409;48.776;9.204;2023-02-01T01:25:30;4.00;99.90
49503;DHT22;35409;48.776;9.204;2023-02-01T01:27:56;4.00;99.90
49503;DHT22;35409;48.776;9.204;2023-02-01T01:30:22;3.90;99.90
49503;DHT22;35409;48.776;9.204;2023-02-01T01:32:48;3.90;99.90
49503;DHT22;35409;48.776;9.204;2023-02-01T01:35:14;3.80;99.90
49503;DHT22;35409;48.776;9.204;2023-02-01T01:37:40;3.90;99.90
49503;DHT22;35409;48.776;9.204;2023-02-01T01:40:07;3.90;99.90
49503;DHT22;35409;48.776;9.204;2023-02-01T01:42:40;3.90;99.90
49503;DHT22;35409;48.776;9.204;2023-02-01T01:47:41;4.00;99.90
49503;DHT22;35409;48.776;9.204;2023-02-01T01:50:10;4.00;99.90
49503;DHT22;35409;48.776;9.204;2023-02-01T01:52:39;4.00;99.90
49503;DHT22;35409;48.776;9.204;2023-02-01T01:55:07;4.00;99.90
49503;DHT22;35409;48.776;9.204;2023-02-01T01:57:39;4.00;99.90
49503;DHT22;35409;48.776;9.204;2023-02-01T02:00:12;4.00;99.90
49503;DHT22;35409;48.776;9.204;2023-02-01T02:02:39;4.00;99.90
49503;DHT22;35409;48.776;9.204;2023-02-01T02:05:06;3.90;99.90
49503;DHT22;35409;48.776;9.204;2023-02-01T02:07:37;3.90;99.90
49503;DHT22;35409;48.776;9.204;2023-02-01T02:10:08;3.80;99.90
49503;DHT22;35409;48.776;9.204;2023-02-01T02:12:38;3.80;99.90
49503;DHT22;35409;48.776;9.204;2023-02-01T02:15:05;3.80;99.90
49503;DHT22;35409;48.776;9.204;2023-02-01T02:17:54;3.80;99.90
49503;DHT22;35409;48.776;9.204;2023-02-01T02:23:56;3.90;99.90
49503;DHT22;35409;48.776;9.204;2023-02-01T02:35:30;3.90;99.90
49503;DHT22;35409;48.776;9.204;2023-02-01T02:38:18;3.80;99.90
49503;DHT22;35409;48.776;9.204;2023-02-01T02:41:18;3.90;99.90
49503;DHT22;35409;48.776;9.204;2023-02-01T02:44:11;3.90;99.90
49503;DHT22;35409;48.776;9.204;2023-02-01T02:47:02;3.90;99.90
49503;DHT22;35409;48.776;9.204;2023-02-01T02:50:12;3.90;99.90
49503;DHT22;35409;48.776;9.204;2023-02-01T02:53:07;4.00;99.90
49503;DHT22;35409;48.776;9.204;2023-02-01T02:55:55;4.00;99.90
49503;DHT22;35409;48.776;9.204;2023-02-01T02:58:42;4.00;99.90
49503;DHT22;35409;48.776;9.204;2023-02-01T03:01:28;4.00;99.90
49503;DHT22;35409;48.776;9.204;2023-02-01T03:04:13;4.00;99.90
49503;DHT22;35409;48.776;9.204;2023-02-01T03:06:43;4.00;99.90
49503;DHT22;35409;48.776;9.204;2023-02-01T03:09:47;4.00;99.90
49503;DHT22;35409;48.776;9.204;2023-02-01T03:12:15;4.00;99.90
49503;DHT22;35409;48.776;9.204;2023-02-01T03:15:08;4.00;99.90
49503;DHT22;35409;48.776;9.204;2023-02-01T03:17:40;4.00;99.90
49503;DHT22;35409;48.776;9.204;2023-02-01T03:20:09;3.90;99.90
49503;DHT22;35409;48.776;9.204;2023-02-01T03:22:38;4.00;99.90
49503;DHT22;35409;48.776;9.204;2023-02-01T03:25:12;3.90;99.90
49503;DHT22;35409;48.776;9.204;2023-02-01T03:27:51;3.90;99.90
49503;DHT22;35409;48.776;9.204;2023-02-01T03:32:48;4.00;99.90
49503;DHT22;35409;48.776;9.204;2023-02-01T03:40:40;4.10;99.90
49503;DHT22;35409;48.776;9.204;2023-02-01T03:43:11;4.10;99.90
49503;DHT22;35409;48.776;9.204;2023-02-01T03:45:43;4.10;99.90
49503;DHT22;35409;48.776;9.204;2023-02-01T03:48:12;4.10;99.90
49503;DHT22;35409;48.776;9.204;2023-02-01T03:50:47;4.10;99.90
49503;DHT22;35409;48.776;9.204;2023-02-01T03:53:18;4.10;99.90
49503;DHT22;35409;48.776;9.204;2023-02-01T03:55:46;4.10;99.90
49503;DHT22;35409;48.776;9.204;2023-02-01T03:58:22;4.10;99.90
49503;DHT22;35409;48.776;9.204;2023-02-01T04:00:56;4.10;99.90
49503;DHT22;35409;48.776;9.204;2023-02-01T04:03:23;4.10;99.90
49503;DHT22;35409;48.776;9.204;2023-02-01T04:05:50;4.20;99.90
49503;DHT22;35409;48.776;9.204;2023-02-01T04:08:17;4.20;99.90
49503;DHT22;35409;48.776;9.204;2023-02-01T04:10:42;4.10;99.90
49503;DHT22;35409;48.776;9.204;2023-02-01T04:13:09;4.10;99.90
49503;DHT22;35409;48.776;9.204;2023-02-01T04:15:35;4.10;99.90
49503;DHT22;35409;48.776;9.204;2023-02-01T04:18:00;4.00;99.90
49503;DHT22;35409;48.776;9.204;2023-02-01T04:20:26;4.00;99.90
49503;DHT22;35409;48.776;9.204;2023-02-01T04:22:52;4.00;99.90
49503;DHT22;35409;48.776;9.204;2023-02-01T04:25:17;4.00;99.90
49503;DHT22;35409;48.776;9.204;2023-02-01T04:27:43;4.00;99.90
49503;DHT22;35409;48.776;9.204;2023-02-01T04:30:10;4.00;99.90
49503;DHT22;35409;48.776;9.204;2023-02-01T04:32:36;4.10;99.90
49503;DHT22;35409;48.776;9.204;2023-02-01T04:35:03;4.10;99.90
49503;DHT22;35409;48.776;9.204;2023-02-01T04:37:28;4.10;99.90
49503;DHT22;35409;48.776;9.204;2023-02-01T04:39:54;4.10;99.90
49503;DHT22;35409;48.776;9.204;2023-02-01T04:42:20;4.10;99.90
49503;DHT22;35409;48.776;9.204;2023-02-01T04:44:45;4.00;99.90
49503;DHT22;35409;48.776;9.204;2023-02-01T04:47:11;4.00;99.90
49503;DHT22;35409;48.776;9.204;2023-02-01T04:49:37;3.90;99.90
49503;DHT22;35409;48.776;9.204;2023-02-01T04:52:03;4.00;99.90
49503;DHT22;35409;48.776;9.204;2023-02-01T04:54:28;4.00;99.90
49503;DHT22;35409;48.776;9.204;2023-02-01T04:56:54;4.10;99.90
49503;DHT22;35409;48.776;9.204;2023-02-01T04:59:19;4.10;99.90
49503;DHT22;35409;48.776;9.204;2023-02-01T05:01:45;4.20;99.90
49503;DHT22;35409;48.776;9.204;2023-02-01T05:04:10;4.20;99.90
49503;DHT22;35409;48.776;9.204;2023-02-01T05:06:36;4.20;99.90
49503;DHT22;35409;48.776;9.204;2023-02-01T05:09:02;4.20;99.90
49503;DHT22;35409;48.776;9.204;2023-02-01T05:11:27;4.20;99.90
49503;DHT22;35409;48.776;9.204;2023-02-01T05:14:11;4.20;99.90
49503;DHT22;35409;48.776;9.204;2023-02-01T05:16:37;4.20;99.90
49503;DHT22;35409;48.776;9.204;2023-02-01T05:19:02;4.20;99.90
49503;DHT22;35409;48.776;9.204;2023-02-01T05:21:28;4.30;99.90
49503;DHT22;35409;48.776;9.204;2023-02-01T05:23:53;4.30;99.90
49503;DHT22;35409;48.776;9.204;2023-02-01T05:26:40;4.30;99.90
49503;DHT22;35409;48.776;9.204;2023-02-01T05:29:08;4.30;99.90
49503;DHT22;35409;48.776;9.204;2023-02-01T05:31:34;4.40;99.90
49503;DHT22;35409;48.776;9.204;2023-02-01T05:34:00;4.40;99.90
49503;DHT22;35409;48.776;9.204;2023-02-01T05:36:25;4.40;99.90
49503;DHT22;35409;48.776;9.204;2023-02-01T05:38:51;4.50;99.90
49503;DHT22;35409;48.776;9.204;2023-02-01T05:41:17;4.50;99.90
49503;DHT22;35409;48.776;9.204;2023-02-01T05:43:42;4.50;99.90
49503;DHT22;35409;48.776;9.204;2023-02-01T05:46:08;4.40;99.90
49503;DHT22;35409;48.776;9.204;2023-02-01T05:48:36;4.40;99.90
49503;DHT22;35409;48.776;9.204;2023-02-01T05:51:01;4.40;99.90
49503;DHT22;35409;48.776;9.204;2023-02-01T05:53:27;4.40;99.90
49503;DHT22;35409;48.776;9.204;2023-02-01T05:55:52;4.40;99.90
49503;DHT22;35409;48.776;9.204;2023-02-01T05:58:18;4.40;99.90
49503;DHT22;35409;48.776;9.204;2023-02-01T06:00:44;4.50;99.90
49503;DHT22;35409;48.776;9.204;2023-02-01T06:03:09;4.40;99.90
49503;DHT22;35409;48.776;9.204;2023-02-01T06:05:35;4.30;99.90
49503;DHT22;35409;48.776;9.204;2023-02-01T06:08:00;4.10;99.90
49503;DHT22;35409;48.776;9.204;2023-02-01T06:10:26;4.10;99.90
49503;DHT22;35409;48.776;9.204;2023-02-01T06:12:51;4.00;99.90
49503;DHT22;35409;48.776;9.204;2023-02-01T06:15:18;3.90;99.90
49503;DHT22;35409;48.776;9.204;2023-02-01T06:17:45;3.80;99.90
49503;DHT22;35409;48.776;9.204;2023-02-01T06:20:12;3.80;99.90
49503;DHT22;35409;48.776;9.204;2023-02-01T06:22:39;3.80;99.90
49503;DHT22;35409;48.776;9.204;2023-02-01T06:25:06;3.80;99.90
49503;DHT22;35409;48.776;9.204;2023-02-01T06:27:32;3.80;99.90
49503;DHT22;35409;48.776;9.204;2023-02-01T06:29:58;3.80;99.90
49503;DHT22;35409;48.776;9.204;2023-02-01T06:32:24;3.80;99.90
49503;DHT22;35409;48.776;9.204;2023-02-01T06:34:50;3.80;99.90
49503;DHT22;35409;48.776;9.204;2023-02-01T06:37:18;3.80;99.90
49503;DHT22;35409;48.776;9.204;2023-02-01T06:39:43;3.90;99.90
49503;DHT22;35409;48.776;9.204;2023-02-01T06:42:09;3.90;99.90
49503;DHT22;35409;48.776;9.204;2023-02-01T06:44:35;4.00;99.90
49503;DHT22;35409;48.776;9.204;2023-02-01T06:47:00;3.90;99.90
49503;DHT22;35409;48.776;9.204;2023-02-01T06:49:26;3.90;99.90
49503;DHT22;35409;48.776;9.204;2023-02-01T06:51:51;4.00;99.90
49503;DHT22;35409;48.776;9.204;2023-02-01T06:54:17;4.10;99.90
49503;DHT22;35409;48.776;9.204;2023-02-01T06:56:43;4.10;99.90
49503;DHT22;35409;48.776;9.204;2023-02-01T06:59:09;4.20;99.90
49503;DHT22;35409;48.776;9.204;2023-02-01T07:01:35;4.30;99.90
49503;DHT22;35409;48.776;9.204;2023-02-01T07:04:00;4.30;99.90
49503;DHT22;35409;48.776;9.204;2023-02-01T07:06:27;4.30;99.90
49503;DHT22;35409;48.776;9.204;2023-02-01T07:08:53;4.30;99.90
49503;DHT22;35409;48.776;9.204;2023-02-01T07:11:21;4.40;99.90
49503;DHT22;35409;48.776;9.204;2023-02-01T07:13:47;4.30;99.90
49503;DHT22;35409;48.776;9.204;2023-02-01T07:16:18;4.40;99.90
49503;DHT22;35409;48.776;9.204;2023-02-01T07:18:44;4.40;99.90
49503;DHT22;35409;48.776;9.204;2023-02-01T07:21:10;4.40;99.90
49503;DHT22;35409;48.776;9.204;2023-02-01T07:23:37;4.50;99.90
49503;DHT22;35409;48.776;9.204;2023-02-01T07:26:04;4.50;99.90
49503;DHT22;35409;48.776;9.204;2023-02-01T07:28:32;4.50;99.90
49503;DHT22;35409;48.776;9.204;2023-02-01T07:31:05;4.40;99.90
49503;DHT22;35409;48.776;9.204;2023-02-01T07:33:31;4.40;99.90
49503;DHT22;35409;48.776;9.204;2023-02-01T07:35:57;4.50;99.90
49503;DHT22;35409;48.776;9.204;2023-02-01T07:38:22;4.50;99.90
49503;DHT22;35409;48.776;9.204;2023-02-01T07:40:49;4.50;99.90
49503;DHT22;35409;48.776;9.204;2023-02-01T07:43:15;4.60;99.90
49503;DHT22;35409;48.776;9.204;2023-02-01T07:45:41;4.60;99.90
49503;DHT22;35409;48.776;9.204;2023-02-01T07:48:06;4.60;99.90
49503;DHT22;35409;48.776;9.204;2023-02-01T07:50:32;4.70;99.90
49503;DHT22;35409;48.776;9.204;2023-02-01T07:52:59;4.70;99.90
49503;DHT22;35409;48.776;9.204;2023-02-01T07:55:26;4.80;99.90
49503;DHT22;35409;48.776;9.204;2023-02-01T07:57:51;4.80;99.90
49503;DHT22;35409;48.776;9.204;2023-02-01T08:00:17;4.90;99.90
49503;DHT22;35409;48.776;9.204;2023-02-01T08:03:03;5.00;99.90
49503;DHT22;35409;48.776;9.204;2023-02-01T08:05:29;5.00;99.90
49503;DHT22;35409;48.776;9.204;2023-02-01T08:07:54;5.10;99.90
49503;DHT22;35409;48.776;9.204;2023-02-01T08:10:20;5.10;99.90
49503;DHT22;35409;48.776;9.204;2023-02-01T08:12:46;5.10;99.90
49503;DHT22;35409;48.776;9.204;2023-02-01T08:15:17;5.10;99.90
49503;DHT22;35409;48.776;9.204;2023-02-01T08:17:50;5.20;99.90
49503;DHT22;35409;48.776;9.204;2023-02-01T08:20:17;5.20;99.90
49503;DHT22;35409;48.776;9.204;2023-02-01T08:22:43;5.30;99.90
49503;DHT22;35409;48.776;9.204;2023-02-01T08:25:09;5.30;99.90
49503;DHT22;35409;48.776;9.204;2023-02-01T08:27:35;5.30;99.90
49503;DHT22;35409;48.776;9.204;2023-02-01T08:30:01;5.30;99.90
49503;DHT22;35409;48.776;9.204;2023-02-01T08:32:27;5.30;99.90
49503;DHT22;35409;48.776;9.204;2023-02-01T08:34:53;5.40;99.90
49503;DHT22;35409;48.776;9.204;2023-02-01T08:37:19;5.50;99.90
49503;DHT22;35409;48.776;9.204;2023-02-01T08:39:45;5.50;99.90
49503;DHT22;35409;48.776;9.204;2023-02-01T08:42:11;5.60;99.90
49503;DHT22;35409;48.776;9.204;2023-02-01T08:44:55;5.60;99.90
49503;DHT22;35409;48.776;9.204;2023-02-01T08:47:21;5.70;99.90
49503;DHT22;35409;48.776;9.204;2023-02-01T08:49:47;5.90;99.90
49503;DHT22;35409;48.776;9.204;2023-02-01T08:52:13;6.00;99.90
49503;DHT22;35409;48.776;9.204;2023-02-01T08:54:38;6.00;99.90
49503;DHT22;35409;48.776;9.204;2023-02-01T08:57:06;6.00;99.90
49503;DHT22;35409;48.776;9.204;2023-02-01T08:59:32;6.10;99.90
49503;DHT22;35409;48.776;9.204;2023-02-01T09:01:58;6.10;99.90
49503;DHT22;35409;48.776;9.204;2023-02-01T09:04:23;6.10;99.90
49503;DHT22;35409;48.776;9.204;2023-02-01T09:06:49;6.00;99.90
49503;DHT22;35409;48.776;9.204;2023-02-01T09:09:14;6.00;99.90
49503;DHT22;35409;48.776;9.204;2023-02-01T09:11:40;5.90;99.90
49503;DHT22;35409;48.776;9.204;2023-02-01T09:14:05;5.90;99.90
49503;DHT22;35409;48.776;9.204;2023-02-01T09:16:31;5.90;99.90
49503;DHT22;35409;48.776;9.204;2023-02-01T09:18:57;5.90;99.90
49503;DHT22;35409;48.776;9.204;2023-02-01T09:21:23;5.90;99.90
49503;DHT22;35409;48.776;9.204;2023-02-01T09:23:50;5.80;99.90
49503;DHT22;35409;48.776;9.204;2023-02-01T09:26:16;5.80;99.90
49503;DHT22;35409;48.776;9.204;2023-02-01T09:28:42;5.70;99.90
49503;DHT22;35409;48.776;9.204;2023-02-01T09:31:08;5.70;99.90
49503;DHT22;35409;48.776;9.204;2023-02-01T09:33:33;5.70;99.90
49503;DHT22;35409;48.776;9.204;2023-02-01T09:36:01;6.00;99.90
49503;DHT22;35409;48.776;9.204;2023-02-01T09:38:28;6.10;99.90
49503;DHT22;35409;48.776;9.204;2023-02-01T09:40:55;6.20;99.90
49503;DHT22;35409;48.776;9.204;2023-02-01T09:45:59;6.60;99.90
49503;DHT22;35409;48.776;9.204;2023-02-01T09:48:31;6.70;99.90
49503;DHT22;35409;48.776;9.204;2023-02-01T09:50:59;6.80;99.90
49503;DHT22;35409;48.776;9.204;2023-02-01T09:53:35;6.80;99.90
49503;DHT22;35409;48.776;9.204;2023-02-01T09:58:42;7.00;99.90
49503;DHT22;35409;48.776;9.204;2023-02-01T10:01:23;7.00;99.90
49503;DHT22;35409;48.776;9.204;2023-02-01T10:03:51;7.00;99.90
49503;DHT22;35409;48.776;9.204;2023-02-01T10:26:16;7.20;99.90
49503;DHT22;35409;48.776;9.204;2023-02-01T10:28:42;7.10;99.90
49503;DHT22;35409;48.776;9.204;2023-02-01T10:31:09;7.10;99.90
49503;DHT22;35409;48.776;9.204;2023-02-01T10:33:43;7.10;99.90
49503;DHT22;35409;48.776;9.204;2023-02-01T10:36:16;7.20;99.90
49503;DHT22;35409;48.776;9.204;2023-02-01T10:38:45;7.30;99.90
49503;DHT22;35409;48.776;9.204;2023-02-01T10:41:15;7.50;99.90
49503;DHT22;35409;48.776;9.204;2023-02-01T10:43:42;7.50;99.90
49503;DHT22;35409;48.776;9.204;2023-02-01T10:46:08;7.50;99.90
49503;DHT22;35409;48.776;9.204;2023-02-01T10:48:35;7.40;99.90
49503;DHT22;35409;48.776;9.204;2023-02-01T10:51:07;7.40;99.90
49503;DHT22;35409;48.776;9.204;2023-02-01T10:53:57;7.50;99.90
49503;DHT22;35409;48.776;9.204;2023-02-01T10:56:25;7.60;99.90
49503;DHT22;35409;48.776;9.204;2023-02-01T10:59:03;7.70;99.90
49503;DHT22;35409;48.776;9.204;2023-02-01T11:01:39;7.60;99.90
49503;DHT22;35409;48.776;9.204;2023-02-01T11:04:09;7.60;99.90
49503;DHT22;35409;48.776;9.204;2023-02-01T11:06:40;7.60;99.90
49503;DHT22;35409;48.776;9.204;2023-02-01T11:14:19;7.60;99.90
49503;DHT22;35409;48.776;9.204;2023-02-01T11:16:52;7.60;99.90
49503;DHT22;35409;48.776;9.204;2023-02-01T11:19:18;7.60;99.90
49503;DHT22;35409;48.776;9.204;2023-02-01T11:21:44;7.60;99.90
49503;DHT22;35409;48.776;9.204;2023-02-01T11:24:25;7.60;99.90
49503;DHT22;35409;48.776;9.204;2023-02-01T11:26:55;7.60;99.90
49503;DHT22;35409;48.776;9.204;2023-02-01T11:29:21;7.40;99.90
49503;DHT22;35409;48.776;9.204;2023-02-01T11:31:58;7.30;99.90
49503;DHT22;35409;48.776;9.204;2023-02-01T11:34:36;7.30;99.90
49503;DHT22;35409;48.776;9.204;2023-02-01T11:37:03;7.30;99.90
49503;DHT22;35409;48.776;9.204;2023-02-01T11:39:31;7.30;99.90
49503;DHT22;35409;48.776;9.204;2023-02-01T11:42:15;7.40;99.90
49503;DHT22;35409;48.776;9.204;2023-02-01T11:44:46;7.40;99.90
49503;DHT22;35409;48.776;9.204;2023-02-01T11:47:25;7.50;99.90
49503;DHT22;35409;48.776;9.204;2023-02-01T11:49:55;7.40;99.90
49503;DHT22;35409;48.776;9.204;2023-02-01T11:55:36;7.30;99.90
49503;DHT22;35409;48.776;9.204;2023-02-01T11:58:06;7.40;99.90
49503;DHT22;35409;48.776;9.204;2023-02-01T12:01:13;7.50;99.90
49503;DHT22;35409;48.776;9.204;2023-02-01T12:04:22;7.70;99.90
49503;DHT22;35409;48.776;9.204;2023-02-01T12:07:20;7.70;99.90
49503;DHT22;35409;48.776;9.204;2023-02-01T12:10:06;7.80;99.90
49503;DHT22;35409;48.776;9.204;2023-02-01T12:24:19;7.30;99.90
49503;DHT22;35409;48.776;9.204;2023-02-01T12:29:48;7.20;99.90
49503;DHT22;35409;48.776;9.204;2023-02-01T12:33:01;7.10;99.90
49503;DHT22;35409;48.776;9.204;2023-02-01T12:38:34;7.00;99.90
49503;DHT22;35409;48.776;9.204;2023-02-01T12:43:55;7.00;99.90
49503;DHT22;35409;48.776;9.204;2023-02-01T12:46:35;7.00;99.90
49503;DHT22;35409;48.776;9.204;2023-02-01T12:49:11;6.90;99.90
49503;DHT22;35409;48.776;9.204;2023-02-01T12:51:39;6.90;99.90
49503;DHT22;35409;48.776;9.204;2023-02-01T12:57:30;6.80;99.90
49503;DHT22;35409;48.776;9.204;2023-02-01T13:05:31;6.70;99.90
49503;DHT22;35409;48.776;9.204;2023-02-01T13:08:05;6.60;99.90
49503;DHT22;35409;48.776;9.204;2023-02-01T13:10:43;6.60;99.90
49503;DHT22;35409;48.776;9.204;2023-02-01T13:16:11;6.50;99.90
49503;DHT22;35409;48.776;9.204;2023-02-01T13:18:42;6.50;99.90
49503;DHT22;35409;48.776;9.204;2023-02-01T13:21:21;6.40;99.90
49503;DHT22;35409;48.776;9.204;2023-02-01T13:23:50;6.50;99.90
49503;DHT22;35409;48.776;9.204;2023-02-01T13:26:16;6.50;99.90
49503;DHT22;35409;48.776;9.204;2023-02-01T13:28:55;6.60;99.90
49503;DHT22;35409;48.776;9.204;2023-02-01T13:31:46;6.70;99.90
49503;DHT22;35409;48.776;9.204;2023-02-01T13:34:45;6.70;99.90
49503;DHT22;35409;48.776;9.204;2023-02-01T13:37:27;6.70;99.90
49503;DHT22;35409;48.776;9.204;2023-02-01T13:39:59;6.70;99.90
49503;DHT22;35409;48.776;9.204;2023-02-01T13:42:53;6.80;99.90
49503;DHT22;35409;48.776;9.204;2023-02-01T13:45:32;6.90;99.90
49503;DHT22;35409;48.776;9.204;2023-02-01T13:48:01;6.90;99.90
49503;DHT22;35409;48.776;9.204;2023-02-01T13:50:39;6.80;99.90
49503;DHT22;35409;48.776;9.204;2023-02-01T13:55:43;6.70;99.90
49503;DHT22;35409;48.776;9.204;2023-02-01T13:58:21;6.60;99.90
49503;DHT22;35409;48.776;9.204;2023-02-01T14:00:49;6.50;99.90
49503;DHT22;35409;48.776;9.204;2023-02-01T14:11:35;6.30;99.90
49503;DHT22;35409;48.776;9.204;2023-02-01T14:19:24;6.50;99.90
49503;DHT22;35409;48.776;9.204;2023-02-01T14:21:52;6.60;99.90
49503;DHT22;35409;48.776;9.204;2023-02-01T14:24:29;6.60;99.90
49503;DHT22;35409;48.776;9.204;2023-02-01T14:26:58;6.60;99.90
49503;DHT22;35409;48.776;9.204;2023-02-01T14:29:37;6.60;99.90
49503;DHT22;35409;48.776;9.204;2023-02-01T14:32:19;6.60;99.90
49503;DHT22;35409;48.776;9.204;2023-02-01T14:37:28;6.50;99.90
49503;DHT22;35409;48.776;9.204;2023-02-01T14:47:50;6.50;99.90
49503;DHT22;35409;48.776;9.204;2023-02-01T14:53:04;6.50;99.90
49503;DHT22;35409;48.776;9.204;2023-02-01T14:58:29;6.50;99.90
49503;DHT22;35409;48.776;9.204;2023-02-01T15:01:00;6.40;99.90
49503;DHT22;35409;48.776;9.204;2023-02-01T15:03:56;6.40;99.90
49503;DHT22;35409;48.776;9.204;2023-02-01T15:06:26;6.40;99.90
49503;DHT22;35409;48.776;9.204;2023-02-01T15:08:57;6.30;99.90
49503;DHT22;35409;48.776;9.204;2023-02-01T15:11:23;6.30;99.90
49503;DHT22;35409;48.776;9.204;2023-02-01T15:13:51;6.40;99.90
49503;DHT22;35409;48.776;9.204;2023-02-01T15:16:19;6.40;99.90
49503;DHT22;35409;48.776;9.204;2023-02-01T15:18:44;6.30;99.90
49503;DHT22;35409;48.776;9.204;2023-02-01T15:21:43;6.30;99.90
49503;DHT22;35409;48.776;9.204;2023-02-01T15:26:45;6.20;99.90
49503;DHT22;35409;48.776;9.204;2023-02-01T15:29:12;6.30;99.90
49503;DHT22;35409;48.776;9.204;2023-02-01T15:31:41;6.30;99.90
49503;DHT22;35409;48.776;9.204;2023-02-01T15:34:08;6.30;99.90
49503;DHT22;35409;48.776;9.204;2023-02-01T15:36:34;6.20;99.90
49503;DHT22;35409;48.776;9.204;2023-02-01T15:41:39;6.20;99.90
49503;DHT22;35409;48.776;9.204;2023-02-01T15:44:39;6.20;99.90
49503;DHT22;35409;48.776;9.204;2023-02-01T15:47:15;6.20;99.90
49503;DHT22;35409;48.776;9.204;2023-02-01T15:49:44;6.20;99.90
49503;DHT22;35409;48.776;9.204;2023-02-01T15:52:36;6.20;99.90
49503;DHT22;35409;48.776;9.204;2023-02-01T15:55:38;6.20;99.90
49503;DHT22;35409;48.776;9.204;2023-02-01T15:58:17;6.20;99.90
49503;DHT22;35409;48.776;9.204;2023-02-01T16:00:49;6.20;99.90
49503;DHT22;35409;48.776;9.204;2023-02-01T16:06:05;6.10;99.90
49503;DHT22;35409;48.776;9.204;2023-02-01T16:08:32;6.10;99.90
49503;DHT22;35409;48.776;9.204;2023-02-01T16:13:34;6.00;99.90
49503;DHT22;35409;48.776;9.204;2023-02-01T16:16:00;6.00;99.90
49503;DHT22;35409;48.776;9.204;2023-02-01T16:18:25;6.00;99.90
49503;DHT22;35409;48.776;9.204;2023-02-01T16:20:51;6.00;99.90
49503;DHT22;35409;48.776;9.204;2023-02-01T16:23:16;6.00;99.90
49503;DHT22;35409;48.776;9.204;2023-02-01T16:25:43;6.10;99.90
49503;DHT22;35409;48.776;9.204;2023-02-01T16:28:09;6.00;99.90
49503;DHT22;35409;48.776;9.204;2023-02-01T16:30:34;6.10;99.90
49503;DHT22;35409;48.776;9.204;2023-02-01T16:33:01;6.10;99.90
49503;DHT22;35409;48.776;9.204;2023-02-01T16:35:36;6.20;99.90
49503;DHT22;35409;48.776;9.204;2023-02-01T16:38:08;6.20;99.90
49503;DHT22;35409;48.776;9.204;2023-02-01T16:40:41;6.10;99.90
49503;DHT22;35409;48.776;9.204;2023-02-01T16:43:20;6.10;99.90
49503;DHT22;35409;48.776;9.204;2023-02-01T16:45:47;6.10;99.90
49503;DHT22;35409;48.776;9.204;2023-02-01T16:48:23;6.10;99.90
49503;DHT22;35409;48.776;9.204;2023-02-01T16:50:53;6.10;99.90
49503;DHT22;35409;48.776;9.204;2023-02-01T16:53:19;6.20;99.90
49503;DHT22;35409;48.776;9.204;2023-02-01T16:55:44;6.10;99.90
49503;DHT22;35409;48.776;9.204;2023-02-01T16:58:12;6.00;99.90
49503;DHT22;35409;48.776;9.204;2023-02-01T17:00:38;5.90;99.90
49503;DHT22;35409;48.776;9.204;2023-02-01T17:03:04;6.00;99.90
49503;DHT22;35409;48.776;9.204;2023-02-01T17:05:32;5.90;99.90
49503;DHT22;35409;48.776;9.204;2023-02-01T17:08:04;5.90;99.90
49503;DHT22;35409;48.776;9.204;2023-02-01T17:10:31;5.80;99.90
49503;DHT22;35409;48.776;9.204;2023-02-01T17:12:57;5.90;99.90
49503;DHT22;35409;48.776;9.204;2023-02-01T17:15:24;5.80;99.90
49503;DHT22;35409;48.776;9.204;2023-02-01T17:17:51;5.80;99.90
49503;DHT22;35409;48.776;9.204;2023-02-01T17:20:24;5.80;99.90
49503;DHT22;35409;48.776;9.204;2023-02-01T17:22:52;5.80;99.90
49503;DHT22;35409;48.776;9.204;2023-02-01T17:25:19;5.80;99.90
49503;DHT22;35409;48.776;9.204;2023-02-01T17:27:47;5.80;99.90
49503;DHT22;35409;48.776;9.204;2023-02-01T17:30:14;5.70;99.90
49503;DHT22;35409;48.776;9.204;2023-02-01T17:32:40;5.80;99.90
49503;DHT22;35409;48.776;9.204;2023-02-01T17:35:12;5.70;99.90
49503;DHT22;35409;48.776;9.204;2023-02-01T17:37:41;5.70;99.90
49503;DHT22;35409;48.776;9.204;2023-02-01T17:40:07;5.70;99.90
49503;DHT22;35409;48.776;9.204;2023-02-01T17:42:32;5.70;99.90
49503;DHT22;35409;48.776;9.204;2023-02-01T17:47:36;5.70;99.90
49503;DHT22;35409;48.776;9.204;2023-02-01T17:50:03;5.70;99.90
49503;DHT22;35409;48.776;9.204;2023-02-01T17:52:29;5.60;99.90
49503;DHT22;35409;48.776;9.204;2023-02-01T17:54:54;5.60;99.90
49503;DHT22;35409;48.776;9.204;2023-02-01T17:57:20;5.60;99.90
49503;DHT22;35409;48.776;9.204;2023-02-01T17:59:46;5.60;99.90
49503;DHT22;35409;48.776;9.204;2023-02-01T18:02:20;5.60;99.90
49503;DHT22;35409;48.776;9.204;2023-02-01T18:04:46;5.60;99.90
49503;DHT22;35409;48.776;9.204;2023-02-01T18:07:12;5.70;99.90
49503;DHT22;35409;48.776;9.204;2023-02-01T18:09:37;5.70;99.90
49503;DHT22;35409;48.776;9.204;2023-02-01T18:12:04;5.70;99.90
49503;DHT22;35409;48.776;9.204;2023-02-01T18:14:30;5.60;99.90
49503;DHT22;35409;48.776;9.204;2023-02-01T18:16:56;5.60;99.90
49503;DHT22;35409;48.776;9.204;2023-02-01T18:19:22;5.60;99.90